Latest Weather Observations for Groote Eylandt Airport

IDD60801

Issued at 1:01 pm CST Saturday 29 April 2017 (issued every 30 minutes, with the page automatically refreshed every 10 minutes)

About weather observations | Map of weather stations | Latest weather observations for NT | Other Formats
Station Details ID: 014518 Name: GROOTE EYLANDT AIRPORT Lat: -13.97 Lon: 136.46 Height: 13.7 m
Data from the previous 72 hours. | See also: Recent months at Groote Eylandt Airport
Date/Time
CST
Temp
°C
App
Temp
°C
Dew
Point
°C
Rel
Hum
%
Delta-T
°C
Wind Press
QNH
hPa
Press
MSL
hPa
Rain since
9am
mm
Dir  Spd
km/h
Gust
km/h
Spd
kts
Gust
kts
29/01:00pm 29.3 30.2 18.4 51 7.0 SE 11 19 6 10 1013.0 1012.9 0.0
29/12:30pm 29.6 30.0 19.0 53 6.9 E 15 24 8 13 1013.4 1013.3 0.0
29/12:00pm 29.1 28.8 17.3 49 7.4 ESE 15 28 8 15 1013.7 1013.6 0.0
29/11:30am 29.0 29.3 16.9 48 7.6 ESE 11 19 6 10 1014.0 1013.9 0.0
29/11:00am 28.7 28.5 17.6 51 7.0 SE 15 24 8 13 1014.2 1014.1 0.0
29/10:30am 28.5 28.2 17.4 51 7.0 ESE 15 26 8 14 1014.2 1014.1 0.0
29/10:00am 27.9 27.0 16.8 50 6.9 ESE 17 32 9 17 1014.3 1014.2 0.0
29/09:30am 27.4 27.1 16.4 51 6.8 SE 13 20 7 11 1014.4 1014.3 0.0
29/09:00am 27.0 28.1 17.2 55 6.1 SE 7 15 4 8 1014.4 1014.3 0.0
29/08:30am 25.7 27.2 17.6 61 5.1 SE 6 9 3 5 1014.0 1013.9 0.0
29/08:00am 23.5 26.4 18.2 72 3.3 CALM 0 0 0 0 1013.6 1013.5 0.0
29/07:30am 19.8 22.7 18.1 90 1.1 CALM 0 0 0 0 1013.3 1013.2 0.0
29/07:00am 18.0 20.6 17.4 96 0.4 CALM 0 0 0 0 1013.1 1013.0 0.0
29/06:30am 17.5 19.9 16.9 96 0.4 CALM 0 0 0 0 1012.9 1012.8 0.0
29/06:00am 17.6 19.9 16.8 95 0.5 CALM 0 0 0 0 1012.9 1012.8 0.0
29/05:30am 17.8 20.2 17.0 95 0.5 CALM 0 0 0 0 1012.6 1012.5 0.0
29/05:00am 17.9 19.2 17.1 95 0.5 SE 6 7 3 4 1012.6 1012.5 0.0
29/04:30am 17.8 19.8 17.0 95 0.5 SE 2 7 1 4 1012.6 1012.5 0.0
29/04:00am 18.0 19.7 17.2 95 0.5 SE 4 6 2 3 1012.5 1012.4 0.0
29/03:30am 18.1 20.6 17.3 95 0.5 CALM 0 0 0 0 1012.7 1012.6 0.0
29/03:00am 18.2 20.8 17.4 95 0.5 CALM 0 0 0 0 1012.8 1012.7 0.0
29/02:30am 18.4 21.0 17.4 94 0.6 CALM 0 0 0 0 1013.2 1013.1 0.0
29/02:00am 18.8 20.4 17.8 94 0.6 SE 6 7 3 4 1013.5 1013.4 0.0
29/01:30am 19.0 21.4 18.0 94 0.6 SSE 2 6 1 3 1013.8 1013.7 0.0
29/01:00am 19.3 22.2 18.1 93 0.7 CALM 0 0 0 0 1013.8 1013.7 0.0
29/12:30am 19.4 22.2 17.9 91 0.9 CALM 0 0 0 0 1014.1 1014.0 0.0
29/12:00am 19.8 22.9 18.6 93 0.7 CALM 0 0 0 0 1014.4 1014.3 0.0
 
Date/Time
CST
Temp
°C
App
Temp
°C
Dew
Point
°C
Rel
Hum
%
Delta-T
°C
Wind Press
QNH
hPa
Press
MSL
hPa
Rain since
9am
mm
Dir  Spd
km/h
Gust
km/h
Spd
kts
Gust
kts
28/11:30pm 19.9 22.8 18.2 90 1.1 CALM 0 0 0 0 1014.6 1014.5 0.0
28/11:00pm 20.1 22.6 18.2 89 1.2 SSE 2 6 1 3 1014.8 1014.7 0.0
28/10:30pm 20.4 22.6 18.3 88 1.3 SSE 4 7 2 4 1015.1 1015.0 0.0
28/10:00pm 21.2 24.4 18.8 86 1.5 CALM 0 0 0 0 1015.3 1015.2 0.0
28/09:30pm 22.1 25.2 18.7 81 2.1 CALM 0 0 0 0 1015.5 1015.4 0.0
28/09:00pm 22.9 25.9 18.4 76 2.8 CALM 0 0 0 0 1015.5 1015.4 0.0
28/08:30pm 23.2 24.9 18.5 75 3.0 SSE 7 9 4 5 1015.4 1015.3 0.0
28/08:00pm 23.6 25.7 18.9 75 3.0 SSE 6 7 3 4 1015.0 1014.9 0.0
28/07:30pm 24.3 26.3 18.7 71 3.6 SSE 6 9 3 5 1014.7 1014.6 0.0
28/07:00pm 24.7 25.9 19.1 71 3.6 SSE 11 20 6 11 1014.2 1014.1 0.0
28/06:30pm 24.8 26.7 19.0 70 3.7 SSE 7 11 4 6 1013.8 1013.7 0.0
28/06:00pm 25.3 26.5 19.0 68 4.0 S 11 20 6 11 1013.4 1013.3 0.0
28/05:30pm 26.2 27.0 19.1 65 4.6 SSE 13 20 7 11 1013.1 1013.0 0.0
28/05:00pm 26.9 27.4 19.3 63 4.9 SE 15 24 8 13 1012.6 1012.5 0.0
28/04:30pm 27.6 27.7 19.1 59 5.5 SSE 17 28 9 15 1012.6 1012.5 0.0
28/04:00pm 28.2 29.2 19.4 59 5.7 SE 13 24 7 13 1012.4 1012.3 0.0
28/03:30pm 28.4 29.2 19.1 57 6.0 SSE 13 24 7 13 1012.2 1012.1 0.0
28/03:00pm 28.0 27.8 18.4 56 6.1 ESE 17 28 9 15 1012.1 1012.0 0.0
28/02:30pm 28.2 28.3 18.3 55 6.3 SE 15 24 8 13 1012.5 1012.4 0.0
28/02:00pm 28.8 29.2 19.1 55 6.3 ESE 15 28 8 15 1012.6 1012.5 0.0
28/01:30pm 29.2 29.1 19.5 56 6.3 ESE 19 32 10 17 1012.8 1012.7 0.0
28/01:00pm 29.0 28.5 18.7 53 6.6 ESE 19 30 10 16 1013.4 1013.3 0.0
28/12:30pm 29.1 28.4 18.2 51 7.0 ESE 19 37 10 20 1013.6 1013.5 0.0
28/12:00pm 28.5 27.3 17.4 51 7.0 ESE 20 39 11 21 1014.0 1013.9 0.0
28/11:30am 28.3 27.2 17.8 53 6.7 ESE 20 32 11 17 1014.6 1014.5 0.0
28/11:00am 28.5 28.0 18.6 55 6.4 ESE 19 32 10 17 1015.2 1015.1 0.0
28/10:30am 28.1 26.6 17.6 53 6.6 ESE 22 32 12 17 1015.3 1015.2 0.0
28/10:00am 28.2 27.7 18.6 56 6.2 SE 19 35 10 19 1015.4 1015.3 0.0
28/09:30am 27.7 26.4 17.3 53 6.5 ESE 20 33 11 18 1015.1 1015.0 0.0
28/09:00am 27.4 26.7 17.3 54 6.3 ESE 17 39 9 21 1014.8 1014.7 0.0
28/08:30am 27.4 26.7 17.3 54 6.3 SE 17 30 9 16 1014.2 1014.1 0.0
28/08:00am 27.0 26.5 16.9 54 6.3 ESE 15 24 8 13 1014.0 1013.9 0.0
28/07:30am 26.2 26.2 17.3 58 5.6 SE 13 24 7 13 1013.7 1013.6 0.0
28/07:00am 25.1 25.6 16.5 59 5.3 SE 9 15 5 8 1013.5 1013.4 0.0
28/06:30am 25.1 25.5 16.3 58 5.4 SE 9 15 5 8 1013.0 1012.9 0.0
28/06:00am 24.8 25.3 16.5 60 5.1 SE 9 15 5 8 1012.6 1012.5 0.0
28/05:30am 24.6 25.4 17.3 64 4.5 SE 9 13 5 7 1012.1 1012.0 0.0
28/05:00am 23.3 25.0 18.4 74 3.1 SE 7 11 4 6 1012.0 1011.9 0.0
28/04:30am 22.2 24.0 18.8 81 2.1 ESE 7 11 4 6 1012.1 1012.0 0.0
28/04:00am 21.1 23.5 19.6 91 1.0 SE 6 7 3 4 1012.1 1012.0 0.0
28/03:30am 20.9 23.8 19.0 89 1.2 SE 2 7 1 4 1012.0 1011.9 0.0
28/03:00am 21.4 23.7 19.5 89 1.2 SE 6 7 3 4 1011.9 1011.8 0.0
28/02:30am 21.6 23.9 19.5 88 1.3 SE 6 9 3 5 1011.9 1011.8 0.0
28/02:00am 21.4 24.1 20.2 93 0.8 SE 6 7 3 4 1012.2 1012.1 0.0
28/01:30am 21.7 24.2 20.2 91 1.0 ESE 7 11 4 6 1012.3 1012.2 0.0
28/01:00am 21.0 23.7 20.2 95 0.5 ESE 6 9 3 5 1012.7 1012.6 0.0
28/12:30am 21.0 23.7 20.2 95 0.5 ESE 6 7 3 4 1013.1 1013.0 0.0
28/12:00am 21.2 24.0 20.4 95 0.5 ESE 6 7 3 4 1013.3 1013.2 0.0
 
Date/Time
CST
Temp
°C
App
Temp
°C
Dew
Point
°C
Rel
Hum
%
Delta-T
°C
Wind Press
QNH
hPa
Press
MSL
hPa
Rain since
9am
mm
Dir  Spd
km/h
Gust
km/h
Spd
kts
Gust
kts
27/11:30pm 21.4 25.3 20.4 94 0.6 CALM 0 0 0 0 1013.6 1013.5 0.0
27/11:00pm 21.7 25.7 20.5 93 0.8 CALM 0 0 0 0 1013.8 1013.7 0.0
27/10:30pm 22.2 26.3 20.7 91 1.0 CALM 0 0 0 0 1014.2 1014.1 0.0
27/10:00pm 22.5 26.5 20.6 89 1.2 CALM 0 0 0 0 1014.0 1013.9 0.0
27/09:30pm 23.5 27.7 21.0 86 1.6 CALM 0 0 0 0 1014.1 1014.0 0.0
27/09:00pm 24.1 28.2 20.8 82 2.2 CALM 0 0 0 0 1013.8 1013.7 0.0
27/08:30pm 24.9 27.8 20.6 77 2.8 SE 6 9 3 5 1013.4 1013.3 0.0
27/08:00pm 25.3 28.1 20.5 75 3.1 SE 6 9 3 5 1012.9 1012.8 0.0
27/07:30pm 25.5 28.1 20.5 74 3.3 SE 7 17 4 9 1012.2 1012.1 0.0
27/07:00pm 25.8 28.0 20.4 72 3.5 SE 9 17 5 9 1011.9 1011.8 0.0
27/06:30pm 26.2 28.1 20.5 71 3.7 SE 11 20 6 11 1011.9 1011.8 0.0
27/06:00pm 26.7 28.2 20.5 69 4.1 SE 13 22 7 12 1011.8 1011.7 0.0
27/05:30pm 27.4 28.4 20.2 65 4.7 SE 15 24 8 13 1011.9 1011.8 0.0
27/05:00pm 28.0 29.4 20.3 63 5.1 SE 13 20 7 11 1011.8 1011.7 0.0
27/04:30pm 28.2 28.8 20.2 62 5.3 SE 17 30 9 16 1011.6 1011.5 0.0
27/04:00pm 28.1 29.0 20.1 62 5.2 ESE 15 26 8 14 1011.5 1011.4 0.0
27/03:30pm 28.3 28.6 20.3 62 5.3 ESE 19 28 10 15 1011.4 1011.3 0.0
27/03:00pm 28.5 29.6 20.5 62 5.3 SE 15 28 8 15 1011.4 1011.3 0.0
27/02:30pm 28.9 29.0 20.4 60 5.6 ESE 20 33 11 18 1011.4 1011.3 0.0
27/02:00pm 29.1 29.4 20.8 61 5.5 SE 20 30 11 16 1011.6 1011.5 0.0
27/01:30pm 28.9 29.9 21.7 65 4.8 SE 19 35 10 19 1012.0 1011.9 0.0
27/01:00pm 29.2 29.6 20.9 61 5.5 ESE 20 30 11 16 1012.7 1012.6 0.0
27/12:30pm 29.5 31.0 22.0 64 5.1 ESE 17 30 9 16 1013.1 1013.0 0.0
27/12:00pm 28.8 30.1 21.6 65 4.8 SE 17 28 9 15 1013.4 1013.3 0.0
27/11:30am 29.0 30.1 21.2 62 5.2 SE 17 30 9 16 1013.8 1013.7 0.0
27/11:00am 29.5 30.3 21.4 61 5.4 SE 19 32 10 17 1014.3 1014.2 0.0
27/10:30am 29.4 30.0 21.1 61 5.5 SE 19 30 10 16 1014.3 1014.2 0.0
27/10:00am 29.0 31.0 22.2 66 4.6 SE 15 28 8 15 1014.0 1013.9 0.0
27/09:30am 28.2 30.2 22.9 73 3.6 SE 17 35 9 19 1013.7 1013.6 0.0
27/09:00am 28.6 34.2 25.8 85 2.0 SE 7 15 4 8 1013.3 1013.2 23.2
27/08:30am 25.6 32.1 25.1 97 0.3 CALM 0 0 0 0 1013.3 1013.2 23.2
27/08:00am 24.3 30.0 23.8 97 0.3 CALM 0 0 0 0 1013.2 1013.1 23.2
27/07:30am 24.0 29.7 23.7 98 0.2 CALM 0 0 0 0 1013.0 1012.9 23.2
27/07:00am 23.1 28.3 22.8 98 0.2 CALM 0 0 0 0 1012.4 1012.3 23.2
27/06:30am 22.6 27.4 22.1 97 0.3 CALM 0 0 0 0 1011.7 1011.6 23.2
27/06:00am 22.6 27.0 22.1 97 0.3 ESE 2 6 1 3 1011.1 1011.0 23.2
27/05:30am 22.9 27.8 22.4 97 0.3 CALM 0 0 0 0 1010.6 1010.5 23.2
27/05:00am 22.9 27.8 22.4 97 0.3 CALM 0 0 0 0 1010.1 1010.0 23.2
27/04:30am 23.1 28.2 22.6 97 0.3 CALM 0 0 0 0 1009.9 1009.8 23.2
27/04:00am 23.3 27.3 22.8 97 0.3 ESE 6 7 3 4 1009.8 1009.7 23.0
27/03:30am 23.9 28.2 23.6 98 0.2 ESE 7 9 4 5 1009.8 1009.7 23.0
27/03:00am 23.3 27.4 23.0 98 0.2 SE 6 7 3 4 1010.0 1009.9 23.0
27/02:30am 23.2 28.3 22.7 97 0.3 CALM 0 0 0 0 1010.2 1010.1 23.0
27/02:00am 23.3 27.1 22.8 97 0.3 SE 7 9 4 5 1010.6 1010.5 23.0
27/01:30am 23.6 28.2 23.1 97 0.3 NE 4 7 2 4 1011.1 1011.0 23.0
27/01:00am 23.7 29.1 23.2 97 0.3 CALM 0 0 0 0 1011.6 1011.5 23.0
27/12:30am 23.7 29.1 23.2 97 0.3 CALM 0 0 0 0 1012.0 1011.9 23.0
27/12:00am 23.8 29.2 23.3 97 0.3 CALM 0 0 0 0 1012.4 1012.3 23.0
 
Date/Time
CST
Temp
°C
App
Temp
°C
Dew
Point
°C
Rel
Hum
%
Delta-T
°C
Wind Press
QNH
hPa
Press
MSL
hPa
Rain since
9am
mm
Dir  Spd
km/h
Gust
km/h
Spd
kts
Gust
kts
26/11:30pm 23.8 29.1 23.1 96 0.5 CALM 0 0 0 0 1012.5 1012.4 23.0
26/11:00pm 23.8 29.1 23.1 96 0.5 CALM 0 0 0 0 1012.8 1012.7 23.0
26/10:30pm 24.1 28.8 23.4 96 0.5 NE 4 6 2 3 1012.8 1012.7 23.0
26/10:00pm 24.2 28.6 23.5 96 0.5 ESE 6 7 3 4 1012.7 1012.6 23.0
26/09:30pm 24.1 28.3 23.4 96 0.5 SE 7 9 4 5 1012.5 1012.4 23.0
26/09:00pm 24.1 28.5 23.4 96 0.5 SE 6 9 3 5 1012.4 1012.3 23.0
26/08:30pm 24.2 28.7 23.7 97 0.3 E 6 7 3 4 1012.4 1012.3 23.0
26/08:00pm 24.0 28.4 23.5 97 0.3 SSE 6 7 3 4 1012.8 1012.7 23.0
26/07:30pm 23.9 28.9 23.2 96 0.5 ENE 2 6 1 3 1012.8 1012.7 23.0
26/07:00pm 23.9 28.9 23.2 96 0.5 ENE 2 6 1 3 1012.9 1012.8 23.0
26/06:30pm 23.9 28.1 23.2 96 0.5 ENE 6 7 3 4 1012.5 1012.4 23.0
26/06:00pm 23.9 29.2 23.0 95 0.6 CALM 0 0 0 0 1012.2 1012.1 23.0
26/05:30pm 24.0 28.1 23.0 94 0.7 ENE 6 7 3 4 1011.8 1011.7 23.0
26/05:00pm 24.0 28.3 22.6 92 0.9 ENE 4 7 2 4 1011.7 1011.6 22.6
26/04:30pm 24.1 28.1 22.7 92 0.9 ENE 6 7 3 4 1011.3 1011.2 22.6
26/04:00pm 24.0 27.5 22.8 93 0.8 ENE 9 11 5 6 1011.1 1011.0 22.6
26/03:30pm 24.0 27.8 22.8 93 0.8 ENE 7 9 4 5 1010.9 1010.8 22.6
26/03:00pm 23.9 27.4 22.9 94 0.7 ENE 9 11 5 6 1010.5 1010.4 22.6
26/02:30pm 24.0 27.2 23.0 94 0.7 NE 11 15 6 8 1010.5 1010.4 22.6
26/02:00pm 24.3 28.2 23.6 96 0.5 ENE 9 13 5 7 1010.7 1010.6 22.6
26/01:30pm 24.2 27.2 23.3 95 0.6 ENE 13 17 7 9 1010.9 1010.8 22.2

Other Formats:

Comma delimited format used in spreadsheet applications
http://www.bom.gov.au/fwo/IDD60801/IDD60801.94153.axf

JavaScript Object Notation format (JSON) in row-major order
http://www.bom.gov.au/fwo/IDD60801/IDD60801.94153.json